SDG075 LIRU-LIRL
Flight info
| Callsign | SDG075 |
|---|---|
| Flight time | 0h 30m |
| Altitude | 2000 |
| Route | SETTEBAGNI MENTANA ROCCAPRIORA COLLEFERNO PRIVERNO |
| Aircraft | CV17/L-SDG075/C |
Departure
| Time | 2026-04-25 12:35 |
|---|---|
| Airport | Rome Urbe Airport (LIRU) |
Arrival
| Time | 2026-04-25 13:05 |
|---|---|
| Airport | Latina Air Base (LIRL) |
| Time | Latitude | Longitude | Altitude | Speed | Heading |
|---|---|---|---|---|---|
| 2026-04-25 12:25 | 41.94973 | 12.50504 | 61 ft | 0 kts | 83° |
| 2026-04-25 12:27 | 41.94972 | 12.50504 | 61 ft | 0 kts | 83° |
| 2026-04-25 12:27 | 41.94973 | 12.50504 | 61 ft | 0 kts | 83° |
| 2026-04-25 12:28 | 41.95011 | 12.50499 | 54 ft | 0 kts | 82° |
| 2026-04-25 12:31 | 41.95010 | 12.50510 | 61 ft | 2 kts | 118° |
| 2026-04-25 12:31 | 41.94974 | 12.50501 | 61 ft | 8 kts | 224° |
| 2026-04-25 12:31 | 41.94930 | 12.50479 | 61 ft | 6 kts | 179° |
| 2026-04-25 12:32 | 41.94895 | 12.50485 | 58 ft | 5 kts | 168° |
| 2026-04-25 12:32 | 41.94862 | 12.50494 | 59 ft | 5 kts | 170° |
| 2026-04-25 12:32 | 41.94827 | 12.50483 | 62 ft | 6 kts | 232° |
| 2026-04-25 12:32 | 41.94819 | 12.50464 | 61 ft | 5 kts | 245° |
| 2026-04-25 12:33 | 41.94825 | 12.50426 | 61 ft | 4 kts | 330° |
| 2026-04-25 12:33 | 41.94837 | 12.50418 | 59 ft | 0 kts | 336° |
| 2026-04-25 12:33 | 41.94988 | 12.50346 | 59 ft | 48 kts | 340° |
| 2026-04-25 12:34 | 41.95443 | 12.50125 | 75 ft | 85 kts | 339° |
| 2026-04-25 12:34 | 41.95942 | 12.49895 | 387 ft | 69 kts | 336° |
| 2026-04-25 12:34 | 41.96517 | 12.50122 | 324 ft | 110 kts | 49° |
| 2026-04-25 12:34 | 41.96805 | 12.50698 | 393 ft | 114 kts | 50° |
| 2026-04-25 12:35 | 41.97729 | 12.51382 | 522 ft | 116 kts | 21° |
| 2026-04-25 12:35 | 41.98464 | 12.51797 | 641 ft | 116 kts | 21° |
| 2026-04-25 12:35 | 41.99225 | 12.52212 | 748 ft | 118 kts | 19° |
| 2026-04-25 12:35 | 41.99991 | 12.52636 | 849 ft | 119 kts | 24° |
| 2026-04-25 12:36 | 42.00574 | 12.53397 | 955 ft | 120 kts | 60° |
| 2026-04-25 12:36 | 42.00896 | 12.54455 | 1060 ft | 125 kts | 68° |
| 2026-04-25 12:36 | 42.01220 | 12.55536 | 1163 ft | 125 kts | 67° |
| 2026-04-25 12:36 | 42.01546 | 12.56627 | 1265 ft | 126 kts | 67° |
| 2026-04-25 12:37 | 42.01874 | 12.57720 | 1356 ft | 127 kts | 67° |
| 2026-04-25 12:37 | 42.02203 | 12.58821 | 1469 ft | 129 kts | 68° |
| 2026-04-25 12:37 | 42.02542 | 12.59953 | 1576 ft | 130 kts | 68° |
| 2026-04-25 12:37 | 42.02877 | 12.61078 | 1685 ft | 130 kts | 66° |
| 2026-04-25 12:38 | 42.03160 | 12.62226 | 1787 ft | 131 kts | 83° |
| 2026-04-25 12:38 | 42.02970 | 12.63420 | 1890 ft | 131 kts | 122° |
| 2026-04-25 12:38 | 42.02333 | 12.64259 | 1993 ft | 128 kts | 155° |
| 2026-04-25 12:38 | 42.01526 | 12.64715 | 2108 ft | 129 kts | 161° |
| 2026-04-25 12:39 | 42.00707 | 12.65185 | 2191 ft | 127 kts | 160° |
| 2026-04-25 12:39 | 41.99902 | 12.65649 | 2302 ft | 124 kts | 162° |
| 2026-04-25 12:39 | 41.99095 | 12.66109 | 2404 ft | 131 kts | 161° |
| 2026-04-25 12:39 | 41.98237 | 12.66600 | 2495 ft | 130 kts | 160° |
| 2026-04-25 12:40 | 41.97412 | 12.67069 | 2602 ft | 129 kts | 161° |
| 2026-04-25 12:40 | 41.96605 | 12.67534 | 2690 ft | 129 kts | 160° |
| 2026-04-25 12:40 | 41.95787 | 12.68004 | 2787 ft | 126 kts | 159° |
| 2026-04-25 12:40 | 41.94991 | 12.68458 | 2886 ft | 126 kts | 160° |
| 2026-04-25 12:41 | 41.94186 | 12.68920 | 2984 ft | 125 kts | 160° |
| 2026-04-25 12:41 | 41.93379 | 12.69378 | 3085 ft | 127 kts | 161° |
| 2026-04-25 12:41 | 41.92559 | 12.69845 | 3101 ft | 130 kts | 161° |
| 2026-04-25 12:41 | 41.91710 | 12.70328 | 3093 ft | 133 kts | 160° |
| 2026-04-25 12:42 | 41.90876 | 12.70804 | 3144 ft | 130 kts | 159° |
| 2026-04-25 12:42 | 41.90326 | 12.71121 | 3177 ft | 130 kts | 160° |
| 2026-04-25 12:42 | 41.89227 | 12.71750 | 3243 ft | 127 kts | 161° |
| 2026-04-25 12:42 | 41.88410 | 12.72214 | 3288 ft | 128 kts | 160° |
| 2026-04-25 12:43 | 41.87590 | 12.72679 | 3329 ft | 126 kts | 160° |
| 2026-04-25 12:43 | 41.86784 | 12.73140 | 3386 ft | 126 kts | 160° |
| 2026-04-25 12:43 | 41.85146 | 12.74072 | 3481 ft | 129 kts | 160° |
| 2026-04-25 12:44 | 41.84317 | 12.74542 | 3542 ft | 130 kts | 160° |
| 2026-04-25 12:44 | 41.83494 | 12.75011 | 3593 ft | 130 kts | 159° |
| 2026-04-25 12:44 | 41.81820 | 12.75962 | 3700 ft | 133 kts | 160° |
| 2026-04-25 12:45 | 41.80964 | 12.76449 | 3762 ft | 134 kts | 160° |
| 2026-04-25 12:45 | 41.80171 | 12.77075 | 3774 ft | 129 kts | 135° |
| 2026-04-25 12:45 | 41.79476 | 12.79233 | 3867 ft | 128 kts | 108° |
| 2026-04-25 12:46 | 41.79203 | 12.80371 | 3917 ft | 128 kts | 108° |
| 2026-04-25 12:46 | 41.78931 | 12.81509 | 3972 ft | 128 kts | 108° |
| 2026-04-25 12:46 | 41.78648 | 12.82696 | 4097 ft | 138 kts | 108° |
| 2026-04-25 12:46 | 41.78347 | 12.83954 | 4076 ft | 142 kts | 108° |
| 2026-04-25 12:47 | 41.78050 | 12.85193 | 4102 ft | 141 kts | 108° |
| 2026-04-25 12:47 | 41.77758 | 12.86437 | 4099 ft | 138 kts | 107° |
| 2026-04-25 12:47 | 41.77465 | 12.87669 | 4098 ft | 137 kts | 106° |
| 2026-04-25 12:47 | 41.77180 | 12.88880 | 4095 ft | 137 kts | 108° |
| 2026-04-25 12:48 | 41.76875 | 12.90118 | 4107 ft | 142 kts | 109° |
| 2026-04-25 12:48 | 41.76576 | 12.91378 | 4105 ft | 144 kts | 108° |
| 2026-04-25 12:48 | 41.76278 | 12.92643 | 4090 ft | 143 kts | 107° |
| 2026-04-25 12:48 | 41.75982 | 12.93894 | 4099 ft | 141 kts | 108° |
| 2026-04-25 12:49 | 41.75682 | 12.95143 | 4100 ft | 142 kts | 107° |
| 2026-04-25 12:49 | 41.75381 | 12.96398 | 4106 ft | 142 kts | 107° |
| 2026-04-25 12:49 | 41.75035 | 12.97642 | 4103 ft | 144 kts | 122° |
| 2026-04-25 12:49 | 41.74317 | 12.98547 | 4097 ft | 139 kts | 152° |
| 2026-04-25 12:50 | 41.73443 | 12.99008 | 4089 ft | 134 kts | 180° |
| 2026-04-25 12:50 | 41.72520 | 12.98984 | 4107 ft | 133 kts | 185° |
| 2026-04-25 12:50 | 41.71586 | 12.98968 | 4162 ft | 134 kts | 184° |
| 2026-04-25 12:50 | 41.70700 | 12.98763 | 4242 ft | 129 kts | 211° |
| 2026-04-25 12:51 | 41.69959 | 12.98096 | 4296 ft | 130 kts | 218° |
| 2026-04-25 12:51 | 41.69226 | 12.97432 | 4343 ft | 124 kts | 217° |
| 2026-04-25 12:51 | 41.68530 | 12.96799 | 4419 ft | 121 kts | 217° |
| 2026-04-25 12:51 | 41.67833 | 12.96164 | 4501 ft | 125 kts | 217° |
| 2026-04-25 12:52 | 41.67084 | 12.95476 | 4496 ft | 132 kts | 217° |
| 2026-04-25 12:52 | 41.66269 | 12.94935 | 4502 ft | 131 kts | 202° |
| 2026-04-25 12:52 | 41.65409 | 12.94533 | 4494 ft | 128 kts | 194° |
| 2026-04-25 12:52 | 41.64527 | 12.94350 | 4458 ft | 128 kts | 190° |
| 2026-04-25 12:53 | 41.63616 | 12.94327 | 4423 ft | 137 kts | 174° |
| 2026-04-25 12:53 | 41.62654 | 12.94469 | 4363 ft | 138 kts | 175° |
| 2026-04-25 12:53 | 41.61712 | 12.94605 | 4323 ft | 135 kts | 172° |
| 2026-04-25 12:53 | 41.60790 | 12.94957 | 4271 ft | 141 kts | 162° |
| 2026-04-25 12:54 | 41.59870 | 12.95341 | 4195 ft | 138 kts | 163° |
| 2026-04-25 12:54 | 41.58942 | 12.95738 | 4129 ft | 141 kts | 162° |
| 2026-04-25 12:54 | 41.58013 | 12.96186 | 4053 ft | 142 kts | 160° |
| 2026-04-25 12:54 | 41.57097 | 12.96657 | 3978 ft | 141 kts | 160° |
| 2026-04-25 12:55 | 41.56180 | 12.97133 | 3909 ft | 141 kts | 160° |
| 2026-04-25 12:55 | 41.55576 | 12.97480 | 3842 ft | 143 kts | 155° |
| 2026-04-25 12:55 | 41.54385 | 12.98263 | 3718 ft | 142 kts | 154° |
| 2026-04-25 12:55 | 41.53510 | 12.98842 | 3610 ft | 140 kts | 155° |
| 2026-04-25 12:56 | 41.52626 | 12.99430 | 3483 ft | 142 kts | 154° |
| 2026-04-25 12:56 | 41.51777 | 13.00132 | 3368 ft | 144 kts | 140° |
| 2026-04-25 12:56 | 41.51061 | 13.01059 | 3257 ft | 142 kts | 136° |
| 2026-04-25 12:56 | 41.50331 | 13.01961 | 3009 ft | 146 kts | 142° |
| 2026-04-25 12:57 | 41.49577 | 13.02877 | 2867 ft | 146 kts | 136° |
| 2026-04-25 12:57 | 41.48854 | 13.03852 | 2730 ft | 150 kts | 135° |
| 2026-04-25 12:57 | 41.48127 | 13.04837 | 2539 ft | 148 kts | 136° |
| 2026-04-25 12:57 | 41.47415 | 13.05794 | 2508 ft | 141 kts | 141° |
| 2026-04-25 12:58 | 41.46532 | 13.06115 | 2511 ft | 133 kts | 196° |
| 2026-04-25 12:58 | 41.45823 | 13.05389 | 2514 ft | 131 kts | 235° |
| 2026-04-25 12:58 | 41.45275 | 13.04453 | 2514 ft | 127 kts | 237° |
| 2026-04-25 12:58 | 41.45126 | 13.03347 | 2517 ft | 125 kts | 283° |
| 2026-04-25 12:59 | 41.45513 | 13.02313 | 2489 ft | 127 kts | 305° |
| 2026-04-25 12:59 | 41.46169 | 13.01517 | 2501 ft | 130 kts | 321° |
| 2026-04-25 12:59 | 41.46871 | 13.00780 | 2514 ft | 128 kts | 320° |
| 2026-04-25 12:59 | 41.47575 | 13.00049 | 2522 ft | 131 kts | 321° |
| 2026-04-25 13:00 | 41.48314 | 12.99291 | 2521 ft | 133 kts | 321° |
| 2026-04-25 13:00 | 41.48555 | 12.99047 | 2497 ft | 133 kts | 322° |
| 2026-04-25 13:00 | 41.49765 | 12.97783 | 2498 ft | 131 kts | 320° |
| 2026-04-25 13:00 | 41.50485 | 12.97074 | 2310 ft | 131 kts | 321° |
| 2026-04-25 13:01 | 41.51266 | 12.96499 | 2073 ft | 125 kts | 341° |
| 2026-04-25 13:01 | 41.52094 | 12.96514 | 1938 ft | 121 kts | 16° |
| 2026-04-25 13:01 | 41.52733 | 12.97283 | 1641 ft | 129 kts | 61° |
| 2026-04-25 13:01 | 41.52769 | 12.98368 | 1462 ft | 120 kts | 120° |
| 2026-04-25 13:02 | 41.52105 | 12.98965 | 1191 ft | 119 kts | 171° |
| 2026-04-25 13:02 | 41.51325 | 12.99014 | 1021 ft | 110 kts | 196° |
| 2026-04-25 13:02 | 41.50749 | 12.98437 | 760 ft | 102 kts | 242° |
| 2026-04-25 13:02 | 41.50756 | 12.97534 | 592 ft | 102 kts | 293° |
| 2026-04-25 13:03 | 41.51149 | 12.96841 | 537 ft | 86 kts | 304° |
| 2026-04-25 13:03 | 41.51497 | 12.96231 | 499 ft | 79 kts | 305° |
| 2026-04-25 13:03 | 41.51826 | 12.95684 | 505 ft | 74 kts | 299° |
| 2026-04-25 13:03 | 41.52111 | 12.95108 | 524 ft | 77 kts | 299° |
| 2026-04-25 13:04 | 41.52403 | 12.94496 | 512 ft | 79 kts | 299° |
| 2026-04-25 13:04 | 41.52736 | 12.93860 | 466 ft | 92 kts | 300° |
| 2026-04-25 13:04 | 41.53095 | 12.93129 | 441 ft | 96 kts | 300° |
| 2026-04-25 13:04 | 41.53457 | 12.92427 | 365 ft | 87 kts | 303° |
| 2026-04-25 13:05 | 41.53786 | 12.91785 | 203 ft | 79 kts | 303° |
| 2026-04-25 13:05 | 41.54071 | 12.91242 | 82 ft | 61 kts | 306° |
| 2026-04-25 13:05 | 41.54198 | 12.90997 | 80 ft | 0 kts | 304° |
| 2026-04-25 13:05 | 41.54214 | 12.90967 | 81 ft | 11 kts | 303° |
| 2026-04-25 13:06 | 41.54262 | 12.90866 | 84 ft | 13 kts | 302° |
| 2026-04-25 13:06 | 41.54317 | 12.90758 | 88 ft | 15 kts | 310° |
| 2026-04-25 13:06 | 41.54397 | 12.90698 | 92 ft | 12 kts | 11° |
| 2026-04-25 13:06 | 41.54473 | 12.90744 | 90 ft | 11 kts | 30° |
| 2026-04-25 13:07 | 41.54538 | 12.90794 | 92 ft | 10 kts | 29° |
| 2026-04-25 13:07 | 41.54604 | 12.90834 | 91 ft | 9 kts | 355° |
| 2026-04-25 13:07 | 41.54638 | 12.90783 | 91 ft | 0 kts | 298° |